Terminal Aerodrome Forecast
Issued by NWS

Home | Current Version | Previous Version | Text Only | Print | Product List | Glossary On
Versions: 1 2 3 4 5 6 7 8 9 10 11 12 13 14 15 16 17 18 19 20 21 22 23 24 25 26 27
000
FTUS46 KSEW 030230 AAB
TAFSEA
TAF AMD
KSEA 030230Z 0303/0406 21016G24KT 6SM -RA OVC006
     FM030400 19010KT P6SM VCSH SCT020 BKN035
     FM030800 20010KT P6SM VCSH OVC012=

USA.gov is the U.S. government's official web portal to all federal, state and local government web resources and services.